createdAt,value
2023-02-02T00:02:15.468Z,6.52
2023-02-02T00:04:42.678Z,6.54
2023-02-02T00:07:10.114Z,6.55
2023-02-02T00:09:37.380Z,6.57
2023-02-02T00:12:05.037Z,6.56
2023-02-02T00:14:33.642Z,6.49
2023-02-02T00:17:00.943Z,6.43
2023-02-02T00:19:29.931Z,6.51
2023-02-02T00:21:58.347Z,6.47
2023-02-02T00:24:25.687Z,6.52
2023-02-02T00:26:56.266Z,6.47
2023-02-02T00:29:25.675Z,6.37
2023-02-02T00:31:54.494Z,6.42
2023-02-02T00:34:22.296Z,6.42
2023-02-02T00:36:50.364Z,6.49
2023-02-02T00:39:19.470Z,6.49
2023-02-02T00:41:46.942Z,6.33
2023-02-02T00:44:14.636Z,6.33
2023-02-02T00:46:42.829Z,6.32
2023-02-02T00:49:11.468Z,6.26
2023-02-02T00:51:38.713Z,6.26
2023-02-02T00:54:06.440Z,6.31
2023-02-02T00:56:33.799Z,6.28
2023-02-02T00:59:01.204Z,6.24
2023-02-02T01:01:28.825Z,6.22
2023-02-02T01:03:56.096Z,6.28
2023-02-02T01:06:25.009Z,6.24
2023-02-02T01:08:52.653Z,6.15
2023-02-02T01:11:20.423Z,6.07
2023-02-02T01:13:47.864Z,6.03
2023-02-02T01:16:15.195Z,5.93
2023-02-02T01:18:43.273Z,5.85
2023-02-02T01:21:12.591Z,5.83
2023-02-02T01:23:41.267Z,5.84
2023-02-02T01:26:11.685Z,5.84
2023-02-02T01:28:40.038Z,5.78
2023-02-02T01:31:09.690Z,5.87
2023-02-02T01:33:37.478Z,5.81
2023-02-02T01:36:07.254Z,5.80
2023-02-02T01:38:34.643Z,5.68
2023-02-02T01:41:03.879Z,5.67
2023-02-02T01:43:50.919Z,5.65
2023-02-02T01:46:20.012Z,5.68
2023-02-02T01:48:51.308Z,5.70
2023-02-02T01:51:21.169Z,5.71
2023-02-02T01:53:50.874Z,5.67
2023-02-02T01:56:24.878Z,5.72
2023-02-02T01:58:52.925Z,5.85
2023-02-02T02:01:20.349Z,5.86
2023-02-02T02:03:47.840Z,5.79
2023-02-02T02:06:18.301Z,5.83
2023-02-02T02:08:50.789Z,5.85
2023-02-02T02:11:20.138Z,5.79
2023-02-02T02:13:47.688Z,5.78
2023-02-02T02:16:21.767Z,5.75
2023-02-02T02:19:01.580Z,5.70
2023-02-02T02:21:49.091Z,5.65
2023-02-02T02:24:49.774Z,5.66
2023-02-02T02:27:50.134Z,5.63
2023-02-02T02:30:47.329Z,5.56
2023-02-02T02:33:25.617Z,5.54
2023-02-02T02:36:03.002Z,5.52
2023-02-02T02:38:37.342Z,5.63
2023-02-02T02:41:10.677Z,5.65
2023-02-02T02:43:43.422Z,5.68
2023-02-02T02:46:12.406Z,5.69
2023-02-02T02:48:44.129Z,5.72
2023-02-02T02:51:42.424Z,5.73
2023-02-02T02:54:13.653Z,5.80
2023-02-02T02:56:50.418Z,5.79
2023-02-02T02:59:26.543Z,5.80
2023-02-02T03:02:04.383Z,5.74
2023-02-02T03:04:42.641Z,5.78
2023-02-02T03:07:16.171Z,5.69
2023-02-02T03:09:47.179Z,5.69
2023-02-02T03:12:16.889Z,5.68
2023-02-02T03:14:44.190Z,5.64
2023-02-02T03:17:11.662Z,5.65
2023-02-02T03:19:40.328Z,5.72
2023-02-02T03:22:07.741Z,5.59
2023-02-02T03:24:34.984Z,5.55
2023-02-02T03:27:02.424Z,5.49
2023-02-02T03:29:29.797Z,5.48
2023-02-02T03:31:57.134Z,5.53
2023-02-02T03:34:24.526Z,5.47
2023-02-02T03:36:53.188Z,5.40
2023-02-02T03:39:20.505Z,5.31
2023-02-02T03:41:47.836Z,5.24
2023-02-02T03:44:15.099Z,5.20
2023-02-02T03:46:42.441Z,5.25
2023-02-02T03:49:09.621Z,5.16
2023-02-02T03:51:36.872Z,5.10
2023-02-02T03:54:05.592Z,5.09
2023-02-02T03:56:32.908Z,5.00
2023-02-02T03:59:00.148Z,4.98
2023-02-02T04:01:29.096Z,5.03
2023-02-02T04:03:57.087Z,4.94
2023-02-02T04:06:25.248Z,4.96
2023-02-02T04:08:52.814Z,4.94
2023-02-02T04:11:21.540Z,4.92
2023-02-02T04:13:48.817Z,4.86
2023-02-02T04:16:16.172Z,4.84
2023-02-02T04:18:43.513Z,4.86
2023-02-02T04:21:10.847Z,4.85
2023-02-02T04:23:38.297Z,4.85
2023-02-02T04:26:06.112Z,4.88
2023-02-02T04:28:35.121Z,4.87
2023-02-02T04:31:02.549Z,4.87
2023-02-02T04:33:29.900Z,4.86
2023-02-02T04:35:57.185Z,4.86
2023-02-02T04:38:24.661Z,4.82
2023-02-02T04:40:52.016Z,4.85
2023-02-02T04:43:19.234Z,4.88
2023-02-02T04:45:47.943Z,4.80
2023-02-02T04:48:15.235Z,4.82
2023-02-02T04:50:42.562Z,4.76
2023-02-02T04:53:09.920Z,4.80
2023-02-02T04:55:37.819Z,4.74
2023-02-02T04:58:05.409Z,4.71
2023-02-02T05:00:33.091Z,4.70
2023-02-02T05:03:01.769Z,4.74
2023-02-02T05:05:29.057Z,4.67
2023-02-02T05:07:56.419Z,4.68
2023-02-02T05:10:23.930Z,4.68
2023-02-02T05:12:52.770Z,4.65
2023-02-02T05:15:20.526Z,4.71
2023-02-02T05:17:47.966Z,4.63
2023-02-02T05:20:17.025Z,4.63
2023-02-02T05:22:44.277Z,4.66
2023-02-02T05:25:11.599Z,4.68
2023-02-02T05:27:38.861Z,4.68
2023-02-02T05:30:07.624Z,4.71
2023-02-02T05:32:34.880Z,4.76
2023-02-02T05:35:02.156Z,4.70
2023-02-02T05:37:30.839Z,4.62
2023-02-02T05:39:58.253Z,4.61
2023-02-02T05:42:25.484Z,4.62
2023-02-02T05:44:52.789Z,4.53
2023-02-02T05:47:20.108Z,4.53
2023-02-02T05:49:47.567Z,4.48
2023-02-02T05:52:18.038Z,4.49
2023-02-02T05:54:46.763Z,4.47
2023-02-02T05:57:14.081Z,4.44
2023-02-02T05:59:41.511Z,4.43
2023-02-02T06:02:08.745Z,4.47
2023-02-02T06:04:36.068Z,4.47
2023-02-02T06:07:03.320Z,4.48
2023-02-02T06:09:30.570Z,4.49
2023-02-02T06:11:59.185Z,4.42
2023-02-02T06:14:26.664Z,4.45
2023-02-02T06:16:53.857Z,4.46
2023-02-02T06:19:21.213Z,4.45
2023-02-02T06:21:48.562Z,4.47
2023-02-02T06:24:15.860Z,4.50
2023-02-02T06:26:43.116Z,4.42
2023-02-02T06:29:13.597Z,4.42
2023-02-02T06:31:40.929Z,4.39
2023-02-02T06:34:11.164Z,4.43
2023-02-02T06:36:38.478Z,4.43
2023-02-02T06:39:05.812Z,4.45
2023-02-02T06:41:33.257Z,4.45
2023-02-02T06:44:01.547Z,4.49
2023-02-02T06:46:30.623Z,4.47
2023-02-02T06:48:58.061Z,4.46
2023-02-02T06:51:25.497Z,4.47
2023-02-02T06:53:52.776Z,4.47
2023-02-02T06:56:20.100Z,4.67
2023-02-02T06:58:47.459Z,4.57
2023-02-02T07:01:14.833Z,4.56
2023-02-02T07:03:43.561Z,4.57
2023-02-02T07:06:16.388Z,4.61
2023-02-02T07:08:44.317Z,4.58
2023-02-02T07:11:15.513Z,4.56
2023-02-02T07:13:43.803Z,4.56
2023-02-02T07:16:11.103Z,4.59
2023-02-02T07:18:38.881Z,4.55
2023-02-02T07:21:07.508Z,4.66
2023-02-02T07:23:34.861Z,4.60
2023-02-02T07:26:03.757Z,4.60
2023-02-02T07:28:31.741Z,4.61
2023-02-02T07:30:59.081Z,4.64
2023-02-02T07:33:26.472Z,4.61
2023-02-02T07:35:53.801Z,4.61
2023-02-02T07:38:22.515Z,4.71
2023-02-02T07:40:49.826Z,4.75
2023-02-02T07:43:17.150Z,4.72
2023-02-02T07:45:44.467Z,4.77
2023-02-02T07:48:11.761Z,4.76
2023-02-02T07:50:38.962Z,4.78
2023-02-02T07:53:06.200Z,4.75
2023-02-02T07:55:34.894Z,4.78
2023-02-02T07:58:02.284Z,4.81
2023-02-02T08:00:29.554Z,4.82
2023-02-02T08:02:56.953Z,4.88
2023-02-02T08:05:24.677Z,4.91
2023-02-02T08:07:52.115Z,4.96
2023-02-02T08:10:19.634Z,5.03
2023-02-02T08:12:48.297Z,5.04
2023-02-02T08:15:15.745Z,5.10
2023-02-02T08:17:45.711Z,5.21
2023-02-02T08:20:13.537Z,5.23
2023-02-02T08:22:40.840Z,5.22
2023-02-02T08:25:09.051Z,5.26
2023-02-02T08:27:37.924Z,5.33
2023-02-02T08:30:07.822Z,5.39
2023-02-02T08:32:35.203Z,5.36
2023-02-02T08:35:02.571Z,5.38
2023-02-02T08:37:29.837Z,5.33
2023-02-02T08:39:57.074Z,5.38
2023-02-02T08:42:24.747Z,5.43
2023-02-02T08:46:01.857Z,5.43
2023-02-02T08:47:40.826Z,5.50
2023-02-02T08:50:09.662Z,5.57
2023-02-02T08:52:37.001Z,5.58
2023-02-02T08:55:05.096Z,5.66
2023-02-02T08:57:32.401Z,5.62
2023-02-02T08:59:59.633Z,5.72
2023-02-02T09:02:27.034Z,5.96
2023-02-02T09:04:55.818Z,5.98
2023-02-02T09:07:23.168Z,6.02
2023-02-02T09:09:50.518Z,6.06
2023-02-02T09:12:17.848Z,6.17
2023-02-02T09:14:45.080Z,6.20
2023-02-02T09:17:12.389Z,6.16
2023-02-02T09:19:39.628Z,6.26
2023-02-02T09:22:08.247Z,6.48
2023-02-02T09:24:35.610Z,6.39
2023-02-02T09:27:03.031Z,6.41
2023-02-02T09:29:30.315Z,6.46
2023-02-02T09:31:57.681Z,6.42
2023-02-02T09:34:25.050Z,6.39
2023-02-02T09:36:52.365Z,6.47
2023-02-02T09:39:21.036Z,6.55
2023-02-02T09:42:42.115Z,6.57
2023-02-02T09:45:16.644Z,6.55
2023-02-02T09:47:53.265Z,6.57
2023-02-02T09:50:30.680Z,6.61
2023-02-02T09:53:03.087Z,6.77
2023-02-02T09:55:36.640Z,6.74
2023-02-02T09:58:11.802Z,6.81
2023-02-02T10:00:44.877Z,6.84
2023-02-02T10:03:19.127Z,6.82
2023-02-02T10:06:02.136Z,6.88
2023-02-02T10:08:36.257Z,6.97
2023-02-02T10:11:27.408Z,6.97
2023-02-02T10:13:59.738Z,7.01
2023-02-02T10:16:27.439Z,7.03
2023-02-02T10:19:01.289Z,6.97
2023-02-02T10:21:34.817Z,6.99
2023-02-02T10:24:03.338Z,7.08
2023-02-02T10:26:37.307Z,7.05
2023-02-02T10:29:15.048Z,7.46
2023-02-02T10:31:48.686Z,8.75
2023-02-02T10:34:21.934Z,9.66
2023-02-02T10:37:07.923Z,9.54
2023-02-02T10:39:46.729Z,9.22
2023-02-02T10:42:29.501Z,8.39
2023-02-02T10:45:00.211Z,8.22
2023-02-02T10:47:29.871Z,7.76
2023-02-02T10:50:07.815Z,7.63
2023-02-02T10:52:35.150Z,7.34
2023-02-02T10:55:10.718Z,7.39
2023-02-02T10:57:56.961Z,7.49
2023-02-02T11:00:29.447Z,7.47
2023-02-02T11:03:00.411Z,7.51
2023-02-02T11:05:29.395Z,7.70
2023-02-02T11:07:57.052Z,7.61
2023-02-02T11:10:25.433Z,7.40
2023-02-02T11:12:55.184Z,7.42
2023-02-02T11:15:26.125Z,7.34
2023-02-02T11:17:53.602Z,7.45
2023-02-02T11:20:32.309Z,7.59
2023-02-02T11:23:01.060Z,7.93
2023-02-02T11:25:31.462Z,8.44
2023-02-02T11:28:01.710Z,8.97
2023-02-02T11:30:33.825Z,9.23
2023-02-02T11:33:21.016Z,9.80
2023-02-02T11:35:54.289Z,10.09
2023-02-02T11:38:21.761Z,10.63
2023-02-02T11:40:55.096Z,10.77
2023-02-02T11:43:29.224Z,10.45
2023-02-02T11:46:02.578Z,9.55
2023-02-02T11:48:35.360Z,9.02
2023-02-02T11:51:04.155Z,8.96
2023-02-02T11:53:33.432Z,8.66
2023-02-02T11:56:05.738Z,8.41
2023-02-02T11:58:46.048Z,8.51
2023-02-02T12:01:25.207Z,8.40
2023-02-02T12:03:54.179Z,8.11
2023-02-02T12:06:23.235Z,8.13
2023-02-02T12:08:54.910Z,8.19
2023-02-02T12:11:34.087Z,8.14
2023-02-02T12:14:17.602Z,8.26
2023-02-02T12:17:01.580Z,8.24
2023-02-02T12:19:52.516Z,8.27
2023-02-02T12:22:39.770Z,8.44
2023-02-02T12:25:31.236Z,8.26
2023-02-02T12:28:05.591Z,8.39
2023-02-02T12:30:39.961Z,8.45
2023-02-02T12:33:18.783Z,8.63
2023-02-02T12:35:56.835Z,8.42
2023-02-02T12:38:41.856Z,8.32
2023-02-02T12:41:22.402Z,8.20
2023-02-02T12:43:57.386Z,8.48
2023-02-02T12:46:44.058Z,8.50
2023-02-02T12:49:29.153Z,8.77
2023-02-02T12:52:13.304Z,9.16
2023-02-02T12:54:59.338Z,8.78
2023-02-02T12:57:42.965Z,8.81
2023-02-02T13:00:24.100Z,9.24
2023-02-02T13:03:05.268Z,9.12
2023-02-02T13:05:55.892Z,9.98
2023-02-02T13:08:29.617Z,10.22
2023-02-02T13:11:03.872Z,10.12
2023-02-02T13:13:36.697Z,9.73
2023-02-02T13:16:08.557Z,9.80
2023-02-02T13:18:44.128Z,9.92
2023-02-02T13:21:14.730Z,10.30
2023-02-02T13:23:46.464Z,10.43
2023-02-02T13:26:18.868Z,10.02
2023-02-02T13:28:52.446Z,9.59
2023-02-02T13:31:25.743Z,9.53
2023-02-02T13:34:04.913Z,8.87
2023-02-02T13:36:35.398Z,8.85
2023-02-02T13:39:13.186Z,8.96
2023-02-02T13:41:41.365Z,8.74
2023-02-02T13:44:15.433Z,8.71
2023-02-02T13:46:50.157Z,8.72
2023-02-02T13:49:23.598Z,8.84
2023-02-02T13:51:58.023Z,8.70
2023-02-02T13:55:10.664Z,8.61
2023-02-02T14:00:40.453Z,8.91
2023-02-02T14:03:27.030Z,8.86
2023-02-02T14:06:07.542Z,8.80
2023-02-02T14:08:35.761Z,8.56
2023-02-02T14:11:05.805Z,8.47
2023-02-02T14:13:42.396Z,8.50
2023-02-02T14:16:22.119Z,8.77
2023-02-02T14:18:56.082Z,9.05
2023-02-02T14:21:56.867Z,9.03
2023-02-02T14:24:44.274Z,9.08
2023-02-02T14:28:00.363Z,8.84
2023-02-02T14:30:33.910Z,8.79
2023-02-02T14:33:41.105Z,8.62
2023-02-02T14:36:14.803Z,8.44
2023-02-02T14:39:08.948Z,8.46
2023-02-02T14:42:10.255Z,8.43
2023-02-02T14:44:57.540Z,8.40
2023-02-02T14:47:49.148Z,8.24
2023-02-02T14:50:21.127Z,8.28
2023-02-02T14:52:58.675Z,8.17
2023-02-02T14:55:27.282Z,8.23
2023-02-02T14:57:59.216Z,8.16
2023-02-02T15:00:30.404Z,8.14
2023-02-02T15:03:36.476Z,8.07
2023-02-02T15:06:23.951Z,8.07
2023-02-02T15:09:24.351Z,7.98
2023-02-02T15:12:30.444Z,7.98
2023-02-02T15:15:07.358Z,7.93
2023-02-02T15:17:46.832Z,7.90
2023-02-02T15:20:18.909Z,7.79
2023-02-02T15:22:52.910Z,7.73
2023-02-02T15:25:24.172Z,7.83
2023-02-02T15:27:57.264Z,7.80
2023-02-02T15:30:28.623Z,7.77
2023-02-02T15:32:56.797Z,7.74
2023-02-02T15:35:30.032Z,7.64
2023-02-02T15:38:00.568Z,7.66
2023-02-02T15:40:30.988Z,7.59
2023-02-02T15:43:01.644Z,7.56
2023-02-02T15:45:41.921Z,7.58
2023-02-02T15:48:22.227Z,7.55
2023-02-02T15:50:51.279Z,7.57
2023-02-02T15:53:21.516Z,7.61
2023-02-02T15:55:49.290Z,7.60
2023-02-02T15:58:31.939Z,7.60
2023-02-02T16:01:03.206Z,7.42
2023-02-02T16:03:36.871Z,7.38
2023-02-02T16:06:06.874Z,7.39
2023-02-02T16:08:37.482Z,7.35
2023-02-02T16:11:08.653Z,7.38
2023-02-02T16:13:37.238Z,7.32
2023-02-02T16:16:20.337Z,7.35
2023-02-02T16:18:47.897Z,7.29
2023-02-02T16:21:24.906Z,7.37
2023-02-02T16:23:52.868Z,7.35
2023-02-02T16:26:25.395Z,7.28
2023-02-02T16:28:53.043Z,7.34
2023-02-02T16:31:21.900Z,7.33
2023-02-02T16:33:49.252Z,7.31
2023-02-02T16:36:25.149Z,7.23
2023-02-02T16:38:54.242Z,7.27
2023-02-02T16:41:29.601Z,7.20
2023-02-02T16:44:30.616Z,7.14
2023-02-02T16:47:00.124Z,7.06
2023-02-02T16:49:28.546Z,6.98
2023-02-02T16:52:14.670Z,6.97
2023-02-02T16:54:50.354Z,6.93
2023-02-02T16:57:21.827Z,6.91
2023-02-02T16:59:52.922Z,6.83
2023-02-02T17:02:27.625Z,6.78
2023-02-02T17:04:58.601Z,6.84
2023-02-02T17:07:26.766Z,6.74
2023-02-02T17:10:13.804Z,6.68
2023-02-02T17:12:41.147Z,6.66
2023-02-02T17:15:33.397Z,6.55
2023-02-02T17:18:04.581Z,6.53
2023-02-02T17:20:32.660Z,6.46
2023-02-02T17:23:03.002Z,6.41
2023-02-02T17:25:35.511Z,6.33
2023-02-02T17:28:06.277Z,6.26
2023-02-02T17:30:33.933Z,6.22
2023-02-02T17:33:01.400Z,6.18
2023-02-02T17:35:40.048Z,6.13
2023-02-02T17:38:14.815Z,6.12
2023-02-02T17:40:42.114Z,6.03
2023-02-02T17:43:11.562Z,6.02
2023-02-02T17:45:39.148Z,5.99
2023-02-02T17:48:06.658Z,5.97
2023-02-02T17:50:37.151Z,5.93
2023-02-02T17:53:04.882Z,5.96
2023-02-02T17:55:35.962Z,5.90
2023-02-02T17:58:03.412Z,5.93
2023-02-02T18:00:31.594Z,5.83
2023-02-02T18:03:04.575Z,5.80
2023-02-02T18:05:31.952Z,5.81
2023-02-02T18:08:00.503Z,5.74
2023-02-02T18:10:28.120Z,5.71
2023-02-02T18:12:55.503Z,5.71
2023-02-02T18:15:23.270Z,5.71
2023-02-02T18:17:50.783Z,5.67
2023-02-02T18:20:19.354Z,5.65
2023-02-02T18:22:46.538Z,5.62
2023-02-02T18:25:15.422Z,5.67
2023-02-02T18:27:42.913Z,5.64
2023-02-02T18:30:11.614Z,5.67
2023-02-02T18:32:40.203Z,5.59
2023-02-02T18:35:09.178Z,5.59
2023-02-02T18:37:37.342Z,5.62
2023-02-02T18:40:07.784Z,5.65
2023-02-02T18:42:36.836Z,5.62
2023-02-02T18:45:05.025Z,5.62
2023-02-02T18:47:32.303Z,5.60
2023-02-02T18:49:59.668Z,5.57
2023-02-02T18:52:27.041Z,5.57
2023-02-02T18:54:54.425Z,5.52
2023-02-02T18:57:21.718Z,5.59
2023-02-02T18:59:52.716Z,5.59
2023-02-02T19:02:20.223Z,5.61
2023-02-02T19:04:47.506Z,5.58
2023-02-02T19:07:14.743Z,5.60
2023-02-02T19:09:42.049Z,5.59
2023-02-02T19:12:12.931Z,5.62
2023-02-02T19:14:40.705Z,5.57
2023-02-02T19:17:20.162Z,5.60
2023-02-02T19:19:48.421Z,5.58
2023-02-02T19:22:19.573Z,5.53
2023-02-02T19:24:46.890Z,5.54
2023-02-02T19:27:17.443Z,5.56
2023-02-02T19:29:45.985Z,5.58
2023-02-02T19:32:16.772Z,5.56
2023-02-02T19:34:44.308Z,5.55
2023-02-02T19:37:22.906Z,5.54
2023-02-02T19:39:50.383Z,5.53
2023-02-02T19:42:17.805Z,5.51
2023-02-02T19:44:45.347Z,5.54
2023-02-02T19:47:24.994Z,5.54
2023-02-02T19:49:52.431Z,5.57
2023-02-02T19:52:23.472Z,5.58
2023-02-02T19:54:50.980Z,5.61
2023-02-02T19:57:24.259Z,5.54
2023-02-02T19:59:52.453Z,5.52
2023-02-02T20:02:48.615Z,5.52
2023-02-02T20:05:20.121Z,5.56
2023-02-02T20:07:48.185Z,5.54
2023-02-02T20:10:20.486Z,5.54
2023-02-02T20:12:47.945Z,5.54
2023-02-02T20:15:28.309Z,5.61
2023-02-02T20:17:59.890Z,5.56
2023-02-02T20:20:29.266Z,5.60
2023-02-02T20:22:57.311Z,5.58
2023-02-02T20:25:24.783Z,5.63
2023-02-02T20:27:52.317Z,5.64
2023-02-02T20:30:23.998Z,5.62
2023-02-02T20:32:54.116Z,5.70
2023-02-02T20:35:32.974Z,5.63
2023-02-02T20:38:01.699Z,5.69
2023-02-02T20:40:30.030Z,5.73
2023-02-02T20:42:57.403Z,5.74
2023-02-02T20:45:25.506Z,5.77
2023-02-02T20:47:53.395Z,5.75
2023-02-02T20:50:22.044Z,5.73
2023-02-02T20:52:50.817Z,5.80
2023-02-02T20:55:18.104Z,5.85
2023-02-02T20:57:45.440Z,5.83
2023-02-02T21:00:16.063Z,5.91
2023-02-02T21:02:43.484Z,5.90
2023-02-02T21:05:10.822Z,5.96
2023-02-02T21:07:38.233Z,5.98
2023-02-02T21:10:08.973Z,6.00
2023-02-02T21:12:36.322Z,6.07
2023-02-02T21:15:04.019Z,6.13
2023-02-02T21:17:31.507Z,6.21
2023-02-02T21:19:58.858Z,6.24
2023-02-02T21:22:26.163Z,6.33
2023-02-02T21:24:53.624Z,6.38
2023-02-02T21:27:22.417Z,6.39
2023-02-02T21:29:49.736Z,6.43
2023-02-02T21:32:17.072Z,6.47
2023-02-02T21:34:44.311Z,6.56
2023-02-02T21:37:14.186Z,6.59
2023-02-02T21:39:42.801Z,6.70
2023-02-02T21:42:13.740Z,6.70
2023-02-02T21:44:44.819Z,6.72
2023-02-02T21:47:29.799Z,6.79
2023-02-02T21:49:59.197Z,6.94
2023-02-02T21:52:32.986Z,7.03
2023-02-02T21:55:00.766Z,7.05
2023-02-02T21:57:35.706Z,7.08
2023-02-02T22:00:22.398Z,7.19
2023-02-02T22:02:50.147Z,7.25
2023-02-02T22:05:22.353Z,7.28
2023-02-02T22:07:50.679Z,7.42
2023-02-02T22:10:36.362Z,7.53
2023-02-02T22:13:14.267Z,7.63
2023-02-02T22:15:43.995Z,7.66
2023-02-02T22:18:13.876Z,7.68
2023-02-02T22:20:41.263Z,7.79
2023-02-02T22:23:10.374Z,7.83
2023-02-02T22:25:40.030Z,7.89
2023-02-02T22:28:16.790Z,7.89
2023-02-02T22:30:45.925Z,7.99
2023-02-02T22:33:13.816Z,7.95
2023-02-02T22:35:41.699Z,8.06
2023-02-02T22:38:09.972Z,8.09
2023-02-02T22:40:37.491Z,8.06
2023-02-02T22:43:07.016Z,8.05
2023-02-02T22:45:34.776Z,8.07
2023-02-02T22:48:03.927Z,8.11
2023-02-02T22:50:32.097Z,8.11
2023-02-02T22:52:59.419Z,8.11
2023-02-02T22:55:26.958Z,8.09
2023-02-02T22:57:54.359Z,8.09
2023-02-02T23:00:23.385Z,8.10
2023-02-02T23:02:51.057Z,8.12
2023-02-02T23:05:21.289Z,8.13
2023-02-02T23:07:49.378Z,8.13
2023-02-02T23:10:18.771Z,8.18
2023-02-02T23:12:46.761Z,8.22
2023-02-02T23:15:14.264Z,8.21
2023-02-02T23:17:41.909Z,8.25
2023-02-02T23:20:12.403Z,8.22
2023-02-02T23:22:41.129Z,8.23
2023-02-02T23:25:09.065Z,8.28
2023-02-02T23:27:36.358Z,8.28
2023-02-02T23:30:05.684Z,8.28
2023-02-02T23:32:33.011Z,8.29
2023-02-02T23:35:00.455Z,8.30
2023-02-02T23:37:27.716Z,8.33
2023-02-02T23:39:56.440Z,8.34
2023-02-02T23:42:23.929Z,8.38
2023-02-02T23:44:51.589Z,8.38
2023-02-02T23:47:19.268Z,8.44
2023-02-02T23:49:46.802Z,8.43
2023-02-02T23:52:14.644Z,8.47
2023-02-02T23:54:42.294Z,8.42
2023-02-02T23:57:11.228Z,8.49
2023-02-02T23:59:38.658Z,8.45
